createdAt,value
2018-03-02T00:00:02.070Z,6.67
2018-03-02T00:04:05.632Z,7.30
2018-03-02T00:08:09.755Z,8.37
2018-03-02T00:12:13.906Z,7.83
2018-03-02T00:16:17.288Z,6.70
2018-03-02T00:20:21.515Z,8.13
2018-03-02T00:24:25.710Z,6.90
2018-03-02T00:28:29.095Z,7.30
2018-03-02T00:32:32.450Z,6.97
2018-03-02T00:36:36.586Z,8.33
2018-03-02T00:40:39.986Z,9.43
2018-03-02T00:44:44.119Z,8.13
2018-03-02T00:48:47.489Z,9.07
2018-03-02T00:52:50.874Z,9.67
2018-03-02T00:56:54.238Z,9.00
2018-03-02T01:00:57.614Z,9.73
2018-03-02T01:05:01.764Z,10.27
2018-03-02T01:09:05.165Z,9.90
2018-03-02T01:13:08.558Z,10.57
2018-03-02T01:17:12.704Z,11.03
2018-03-02T01:21:16.070Z,8.77
2018-03-02T01:25:20.231Z,9.97
2018-03-02T01:29:23.632Z,10.37
2018-03-02T01:33:27.768Z,10.23
2018-03-02T01:37:31.360Z,10.97
2018-03-02T01:41:35.493Z,9.50
2018-03-02T01:45:38.854Z,8.40
2018-03-02T01:49:42.219Z,8.97
2018-03-02T01:53:45.576Z,8.53
2018-03-02T01:57:48.940Z,8.83
2018-03-02T02:01:52.355Z,8.90
2018-03-02T02:05:55.728Z,8.33
2018-03-02T02:09:59.071Z,10.00
2018-03-02T02:14:02.441Z,9.13
2018-03-02T02:18:05.877Z,6.87
2018-03-02T02:22:09.265Z,8.33
2018-03-02T02:26:12.636Z,7.97
2018-03-02T02:30:16.764Z,7.40
2018-03-02T02:34:20.890Z,7.43
2018-03-02T02:38:25.031Z,7.53
2018-03-02T02:42:28.431Z,8.27
2018-03-02T02:46:31.796Z,7.80
2018-03-02T02:50:35.177Z,6.80
2018-03-02T02:54:38.577Z,6.80
2018-03-02T02:58:41.947Z,7.43
2018-03-02T03:02:45.346Z,7.40
2018-03-02T03:06:49.590Z,6.80
2018-03-02T03:10:52.965Z,6.70
2018-03-02T03:14:57.115Z,7.40
2018-03-02T03:19:00.480Z,6.90
2018-03-02T03:23:03.860Z,7.03
2018-03-02T03:27:07.230Z,6.97
2018-03-02T03:31:10.605Z,6.90
2018-03-02T03:35:14.804Z,6.73
2018-03-02T03:39:18.165Z,7.07
2018-03-02T03:43:21.537Z,6.03
2018-03-02T03:47:24.913Z,5.83
2018-03-02T03:51:28.277Z,6.37
2018-03-02T03:55:31.673Z,6.10
2018-03-02T03:59:35.831Z,5.47
2018-03-02T04:03:39.212Z,5.73
2018-03-02T04:07:42.575Z,5.83
2018-03-02T04:11:45.949Z,5.93
2018-03-02T04:15:49.326Z,5.93
2018-03-02T04:19:52.700Z,5.60
2018-03-02T04:23:56.065Z,5.73
2018-03-02T04:27:59.425Z,5.53
2018-03-02T04:32:03.554Z,6.40
2018-03-02T04:36:07.698Z,7.43
2018-03-02T04:40:11.079Z,5.73
2018-03-02T04:44:15.266Z,5.63
2018-03-02T04:48:18.625Z,5.70
2018-03-02T04:52:22.762Z,6.20
2018-03-02T04:56:26.269Z,5.93
2018-03-02T05:00:29.749Z,5.77
2018-03-02T05:04:33.875Z,6.43
2018-03-02T05:08:38.009Z,6.13
2018-03-02T05:12:41.389Z,5.83
2018-03-02T05:16:44.746Z,6.97
2018-03-02T05:20:48.162Z,6.90
2018-03-02T05:24:51.584Z,7.00
2018-03-02T05:28:54.941Z,7.03
2018-03-02T05:32:59.076Z,7.07
2018-03-02T05:37:02.581Z,8.07
2018-03-02T05:41:06.059Z,8.67
2018-03-02T05:45:10.251Z,7.77
2018-03-02T05:49:13.617Z,6.70
2018-03-02T05:53:16.993Z,6.20
2018-03-02T05:57:20.379Z,5.27
2018-03-02T06:01:23.747Z,4.80
2018-03-02T06:05:27.130Z,4.37
2018-03-02T06:09:31.273Z,4.93
2018-03-02T06:13:34.654Z,4.27
2018-03-02T06:17:38.788Z,4.77
2018-03-02T06:21:42.159Z,4.57
2018-03-02T06:25:45.524Z,4.67
2018-03-02T06:29:48.899Z,4.13
2018-03-02T06:33:53.037Z,4.60
2018-03-02T06:37:56.429Z,4.30
2018-03-02T06:41:59.844Z,4.07
2018-03-02T06:46:03.231Z,4.13
2018-03-02T06:50:07.369Z,3.90
2018-03-02T06:54:10.736Z,4.33
2018-03-02T06:58:14.877Z,4.30
2018-03-02T07:02:19.022Z,4.40
2018-03-02T07:06:22.388Z,3.83
2018-03-02T07:10:25.760Z,4.27
2018-03-02T07:14:29.132Z,3.63
2018-03-02T07:18:33.278Z,3.73
2018-03-02T07:22:36.622Z,3.73
2018-03-02T07:26:40.904Z,3.70
2018-03-02T07:30:44.279Z,3.90
2018-03-02T07:34:48.411Z,4.70
2018-03-02T07:38:52.535Z,3.40
2018-03-02T07:42:56.686Z,2.97
2018-03-02T07:47:00.054Z,3.33
2018-03-02T07:51:04.190Z,3.30
2018-03-02T07:55:08.317Z,5.03
2018-03-02T07:59:12.504Z,2.60
2018-03-02T08:03:16.060Z,3.23
2018-03-02T08:07:19.428Z,3.30
2018-03-02T08:11:22.810Z,3.77
2018-03-02T08:15:26.171Z,2.60
2018-03-02T08:19:29.553Z,3.20
2018-03-02T08:23:33.702Z,3.10
2018-03-02T08:27:37.061Z,4.60
2018-03-02T08:31:40.432Z,2.83
2018-03-02T08:35:43.950Z,2.60
2018-03-02T08:39:47.327Z,2.90
2018-03-02T08:43:50.765Z,4.23
2018-03-02T08:47:54.131Z,2.50
2018-03-02T08:51:57.586Z,2.67
2018-03-02T08:56:00.948Z,2.50
2018-03-02T09:00:04.386Z,2.70
2018-03-02T09:04:07.754Z,2.93
2018-03-02T09:08:11.886Z,3.67
2018-03-02T09:12:15.370Z,2.97
2018-03-02T09:16:19.519Z,4.10
2018-03-02T09:20:23.043Z,4.40
2018-03-02T09:24:26.440Z,3.60
2018-03-02T09:28:29.877Z,2.73
2018-03-02T09:32:33.331Z,2.73
2018-03-02T09:36:37.472Z,2.73
2018-03-02T09:40:40.867Z,3.40
2018-03-02T09:44:45.087Z,3.10
2018-03-02T09:48:49.256Z,2.93
2018-03-02T09:52:52.824Z,3.00
2018-03-02T09:56:56.972Z,2.33
2018-03-02T10:01:00.395Z,2.93
2018-03-02T10:05:03.745Z,3.57
2018-03-02T10:09:07.102Z,3.07
2018-03-02T10:13:10.474Z,3.20
2018-03-02T10:17:13.877Z,2.70
2018-03-02T10:21:17.993Z,2.93
2018-03-02T10:25:22.125Z,2.77
2018-03-02T10:29:26.243Z,2.93
2018-03-02T10:33:30.373Z,3.10
2018-03-02T10:37:34.527Z,2.90
2018-03-02T10:41:37.948Z,2.70
2018-03-02T10:45:41.339Z,3.00
2018-03-02T10:49:44.715Z,3.03
2018-03-02T10:53:48.855Z,3.00
2018-03-02T10:57:52.346Z,3.57
2018-03-02T11:01:56.574Z,2.90
2018-03-02T11:06:00.705Z,2.60
2018-03-02T11:10:04.070Z,2.93
2018-03-02T11:14:07.450Z,2.87
2018-03-02T11:18:10.796Z,2.73
2018-03-02T11:22:14.354Z,3.40
2018-03-02T11:26:17.748Z,3.70
2018-03-02T11:30:21.115Z,3.30
2018-03-02T11:34:24.485Z,3.73
2018-03-02T11:38:27.936Z,3.63
2018-03-02T11:42:31.301Z,3.90
2018-03-02T11:46:34.674Z,4.00
2018-03-02T11:50:38.057Z,5.13
2018-03-02T11:54:42.378Z,8.60
2018-03-02T11:58:46.620Z,5.70
2018-03-02T12:02:50.765Z,6.80
2018-03-02T12:06:54.118Z,6.40
2018-03-02T12:10:57.473Z,5.10
2018-03-02T12:15:00.824Z,4.20
2018-03-02T12:19:04.190Z,5.43
2018-03-02T12:23:07.546Z,5.20
2018-03-02T12:27:10.904Z,8.23
2018-03-02T12:31:14.282Z,6.83
2018-03-02T12:35:17.659Z,6.57
2018-03-02T12:39:21.804Z,5.70
2018-03-02T12:43:25.987Z,6.63
2018-03-02T12:47:29.362Z,5.40
2018-03-02T12:51:32.871Z,5.40
2018-03-02T12:55:36.224Z,5.30
2018-03-02T12:59:39.586Z,5.83
2018-03-02T13:03:42.990Z,6.03
2018-03-02T13:07:46.384Z,5.73
2018-03-02T13:11:49.741Z,5.20
2018-03-02T13:15:53.342Z,5.03
2018-03-02T13:19:56.696Z,5.10
2018-03-02T13:24:00.091Z,5.43
2018-03-02T13:28:21.848Z,5.63
2018-03-02T13:32:25.198Z,5.97
2018-03-02T13:36:28.597Z,5.53
2018-03-02T13:40:49.713Z,6.87
2018-03-02T13:44:53.216Z,5.87
2018-03-02T13:49:14.556Z,5.00
2018-03-02T13:53:17.921Z,4.70
2018-03-02T13:57:39.104Z,4.70
2018-03-02T14:01:42.510Z,5.50
2018-03-02T14:05:45.891Z,4.70
2018-03-02T14:09:49.262Z,5.37
2018-03-02T14:13:52.731Z,4.80
2018-03-02T14:17:56.278Z,4.73
2018-03-02T14:21:59.655Z,5.43
2018-03-02T14:26:03.789Z,5.50
2018-03-02T14:30:07.980Z,4.87
2018-03-02T14:34:12.170Z,5.80
2018-03-02T14:38:15.530Z,5.67
2018-03-02T14:42:23.030Z,5.83
2018-03-02T14:46:27.274Z,5.13
2018-03-02T14:50:31.429Z,6.40
2018-03-02T14:54:34.836Z,5.83
2018-03-02T14:58:38.249Z,5.93
2018-03-02T15:02:41.887Z,5.90
2018-03-02T15:06:45.280Z,6.73
2018-03-02T15:10:48.723Z,6.77
2018-03-02T15:14:52.893Z,7.53
2018-03-02T15:18:56.313Z,6.97
2018-03-02T15:22:59.833Z,6.17
2018-03-02T15:27:03.265Z,6.17
2018-03-02T15:31:07.458Z,6.43
2018-03-02T15:35:10.946Z,5.53
2018-03-02T15:39:14.501Z,5.93
2018-03-02T15:43:17.876Z,7.37
2018-03-02T15:47:22.852Z,7.87
2018-03-02T15:51:26.372Z,6.77
2018-03-02T15:55:30.723Z,8.47
2018-03-02T15:59:34.146Z,7.03
2018-03-02T16:03:37.563Z,6.30
2018-03-02T16:07:41.111Z,6.37
2018-03-02T16:11:45.308Z,5.80
2018-03-02T16:15:48.802Z,7.23
2018-03-02T16:19:52.200Z,7.70
2018-03-02T16:23:55.608Z,7.03
2018-03-02T16:27:59.024Z,7.20
2018-03-02T16:32:02.433Z,6.43
2018-03-02T16:36:05.857Z,6.90
2018-03-02T16:40:10.126Z,6.70
2018-03-02T16:44:14.358Z,7.97
2018-03-02T16:48:21.381Z,6.43
2018-03-02T16:52:25.492Z,6.40
2018-03-02T16:56:29.230Z,5.47
2018-03-02T17:00:33.417Z,6.20
2018-03-02T17:04:37.996Z,5.17
2018-03-02T17:08:41.991Z,7.57
2018-03-02T17:12:46.014Z,6.90
2018-03-02T17:16:49.467Z,6.63
2018-03-02T17:20:53.020Z,6.33
2018-03-02T17:24:56.434Z,6.63
2018-03-02T17:28:59.828Z,6.03
2018-03-02T17:33:03.419Z,6.03
2018-03-02T17:37:07.645Z,6.40
2018-03-02T17:41:11.797Z,6.20
2018-03-02T17:45:15.233Z,6.40
2018-03-02T17:49:18.580Z,5.90
2018-03-02T17:53:22.015Z,6.37
2018-03-02T17:57:25.485Z,6.67
2018-03-02T18:01:29.650Z,7.50
2018-03-02T18:05:33.025Z,5.40
2018-03-02T18:09:37.173Z,6.17
2018-03-02T18:13:40.589Z,6.17
2018-03-02T18:17:43.980Z,6.13
2018-03-02T18:21:47.480Z,6.53
2018-03-02T18:25:50.891Z,6.70
2018-03-02T18:29:54.253Z,6.50
2018-03-02T18:33:57.636Z,7.00
2018-03-02T18:38:01.051Z,6.40
2018-03-02T18:42:04.443Z,6.33
2018-03-02T18:46:07.831Z,6.33
2018-03-02T18:50:11.216Z,6.67
2018-03-02T18:54:15.395Z,6.73
2018-03-02T18:58:18.843Z,6.67
2018-03-02T19:02:22.225Z,6.50
2018-03-02T19:06:25.626Z,7.93
2018-03-02T19:10:29.039Z,10.07
2018-03-02T19:14:32.436Z,8.30
2018-03-02T19:18:37.334Z,7.50
2018-03-02T19:22:40.735Z,6.97
2018-03-02T19:26:44.132Z,6.23
2018-03-02T19:30:47.539Z,6.00
2018-03-02T19:34:51.051Z,6.30
2018-03-02T19:38:54.469Z,5.53
2018-03-02T19:42:57.870Z,5.40
2018-03-02T19:47:01.293Z,6.33
2018-03-02T19:51:04.827Z,6.77
2018-03-02T19:55:08.230Z,5.17
2018-03-02T19:59:11.665Z,6.57
2018-03-02T20:03:15.874Z,6.33
2018-03-02T20:07:20.070Z,6.83
2018-03-02T20:11:23.534Z,5.47
2018-03-02T20:15:27.835Z,6.40
2018-03-02T20:19:31.348Z,6.63
2018-03-02T20:23:34.744Z,7.00
2018-03-02T20:27:38.162Z,5.93
2018-03-02T20:31:41.682Z,6.53
2018-03-02T20:35:45.898Z,7.50
2018-03-02T20:39:50.062Z,6.80
2018-03-02T20:43:53.510Z,7.17
2018-03-02T20:47:56.939Z,7.07
2018-03-02T20:52:01.080Z,8.80
2018-03-02T20:56:05.230Z,8.33
2018-03-02T21:00:08.738Z,7.07
2018-03-02T21:04:12.151Z,6.97
2018-03-02T21:08:15.548Z,7.47
2018-03-02T21:12:18.932Z,7.53
2018-03-02T21:16:23.066Z,7.00
2018-03-02T21:20:26.485Z,8.33
2018-03-02T21:24:29.891Z,9.43
2018-03-02T21:28:33.439Z,10.27
2018-03-02T21:32:36.917Z,10.67
2018-03-02T21:36:40.297Z,9.57
2018-03-02T21:40:43.716Z,9.70
2018-03-02T21:44:47.116Z,10.27
2018-03-02T21:48:50.696Z,9.10
2018-03-02T21:52:54.134Z,10.80
2018-03-02T21:56:57.558Z,9.97
2018-03-02T22:01:01.063Z,10.00
2018-03-02T22:05:04.443Z,10.13
2018-03-02T22:09:08.627Z,10.97
2018-03-02T22:13:11.995Z,11.27
2018-03-02T22:17:16.303Z,10.43
2018-03-02T22:21:20.481Z,9.93
2018-03-02T22:25:23.972Z,10.63
2018-03-02T22:29:27.362Z,9.23
2018-03-02T22:33:30.933Z,8.83
2018-03-02T22:37:35.042Z,9.10
2018-03-02T22:41:38.411Z,6.97
2018-03-02T22:45:41.802Z,11.63
2018-03-02T22:49:45.184Z,9.80
2018-03-02T22:53:49.439Z,10.60
2018-03-02T22:57:52.828Z,10.20
2018-03-02T23:04:26.051Z,9.03
2018-03-02T23:08:29.642Z,9.17
2018-03-02T23:12:33.778Z,9.97
2018-03-02T23:16:37.216Z,10.00
2018-03-02T23:20:40.602Z,10.53
2018-03-02T23:24:43.985Z,10.10
2018-03-02T23:28:48.141Z,9.83
2018-03-02T23:32:51.538Z,9.80
2018-03-02T23:36:55.002Z,10.47
2018-03-02T23:40:58.374Z,10.67
2018-03-02T23:45:01.748Z,9.23
2018-03-02T23:49:05.134Z,10.40
2018-03-02T23:53:09.395Z,11.20
2018-03-02T23:57:12.776Z,10.60
